createdAt,value
2017-11-06T00:00:32.635Z,99030
2017-11-06T00:02:40.181Z,99026
2017-11-06T00:04:46.776Z,99038
2017-11-06T00:06:53.558Z,99031
2017-11-06T00:09:01.620Z,99046
2017-11-06T00:11:09.871Z,99049
2017-11-06T00:13:15.963Z,99044
2017-11-06T00:15:26.891Z,99041
2017-11-06T00:17:32.933Z,99043
2017-11-06T00:19:38.595Z,99052
2017-11-06T00:21:45.178Z,99046
2017-11-06T00:23:51.264Z,99049
2017-11-06T00:25:58.398Z,99058
2017-11-06T00:28:04.047Z,99054
2017-11-06T00:30:10.462Z,99055
2017-11-06T00:32:15.983Z,99057
2017-11-06T00:34:22.332Z,99051
2017-11-06T00:36:28.827Z,99058
2017-11-06T00:38:35.090Z,99065
2017-11-06T00:40:40.981Z,99077
2017-11-06T00:42:48.035Z,99073
2017-11-06T00:44:55.777Z,99076
2017-11-06T00:47:03.739Z,99080
2017-11-06T00:49:14.522Z,99088
2017-11-06T00:51:20.290Z,99094
2017-11-06T00:53:27.064Z,99097
2017-11-06T00:55:33.116Z,99098
2017-11-06T00:57:39.677Z,99098
2017-11-06T00:59:45.299Z,99104
2017-11-06T01:01:51.704Z,99109
2017-11-06T01:03:58.354Z,99106
2017-11-06T01:06:03.810Z,99109
2017-11-06T01:08:12.452Z,99110
2017-11-06T01:10:18.759Z,99102
2017-11-06T01:12:24.468Z,99105
2017-11-06T01:14:30.594Z,99109
2017-11-06T01:16:37.163Z,99101
2017-11-06T01:18:42.866Z,99101
2017-11-06T01:20:49.181Z,99107
2017-11-06T01:22:55.877Z,99115
2017-11-06T01:25:02.813Z,99111
2017-11-06T01:27:10.766Z,99103
2017-11-06T01:29:16.996Z,99103
2017-11-06T01:31:22.943Z,99109
2017-11-06T01:33:29.048Z,99107
2017-11-06T01:35:34.557Z,99114
2017-11-06T01:37:40.216Z,99112
2017-11-06T01:39:46.865Z,99120
2017-11-06T01:41:53.037Z,99111
2017-11-06T01:43:59.100Z,99111
2017-11-06T01:46:09.442Z,99128
2017-11-06T01:48:15.664Z,99117
2017-11-06T01:50:21.506Z,99121
2017-11-06T01:52:28.671Z,99129
2017-11-06T01:54:35.494Z,99126
2017-11-06T01:56:42.038Z,99132
2017-11-06T01:58:48.644Z,99137
2017-11-06T02:00:57.880Z,99145
2017-11-06T02:03:05.697Z,99143
2017-11-06T02:05:11.686Z,99140
2017-11-06T02:07:17.734Z,99144
2017-11-06T02:09:23.558Z,99143
2017-11-06T02:11:29.316Z,99146
2017-11-06T02:13:35.330Z,99149
2017-11-06T02:15:41.329Z,99152
2017-11-06T02:17:46.947Z,99160
2017-11-06T02:19:54.808Z,99178
2017-11-06T02:22:03.985Z,99169
2017-11-06T02:24:09.904Z,99170
2017-11-06T03:09:32.306Z,99234
2017-11-06T03:11:48.936Z,99240
2017-11-06T03:13:55.646Z,99240
2017-11-06T03:16:01.243Z,99239
2017-11-06T03:18:07.248Z,99237
2017-11-06T03:20:14.152Z,99239
2017-11-06T03:22:20.461Z,99235
2017-11-06T03:24:26.074Z,99234
2017-11-06T03:26:31.684Z,99239
2017-11-06T03:28:44.698Z,99243
2017-11-06T03:30:51.239Z,99239
2017-11-06T03:32:58.018Z,99238
2017-11-06T03:35:03.503Z,99234
2017-11-06T03:37:09.046Z,99243
2017-11-06T03:39:14.833Z,99236
2017-11-06T03:41:20.287Z,99243
2017-11-06T03:43:26.035Z,99250
2017-11-06T03:45:32.294Z,99247
2017-11-06T03:47:38.107Z,99245
2017-11-06T03:49:43.530Z,99251
2017-11-06T03:51:49.570Z,99257
2017-11-06T03:53:55.936Z,99259
2017-11-06T03:56:02.849Z,99260
2017-11-06T03:58:11.101Z,99268
2017-11-06T04:00:16.946Z,99276
2017-11-06T04:02:24.351Z,99270
2017-11-06T04:04:30.118Z,99281
2017-11-06T04:06:35.636Z,99280
2017-11-06T04:08:41.211Z,99290
2017-11-06T04:10:46.864Z,99295
2017-11-06T04:12:53.810Z,99298
2017-11-06T04:15:00.116Z,99300
2017-11-06T04:17:08.108Z,99299
2017-11-06T04:19:14.055Z,99303
2017-11-06T04:21:19.607Z,99311
2017-11-06T04:23:27.213Z,99306
2017-11-06T04:25:33.653Z,99315
2017-11-06T04:27:39.292Z,99321
2017-11-06T04:29:45.093Z,99314
2017-11-06T04:31:52.922Z,99314
2017-11-06T04:33:58.964Z,99314
2017-11-06T04:36:07.267Z,99316
2017-11-06T04:38:14.152Z,99325
2017-11-06T04:40:19.790Z,99325
2017-11-06T04:42:27.103Z,99326
2017-11-06T04:44:32.728Z,99331
2017-11-06T04:46:38.222Z,99331
2017-11-06T04:48:43.682Z,99337
2017-11-06T04:50:51.929Z,99345
2017-11-06T04:53:02.876Z,99339
2017-11-06T04:55:12.999Z,99329
2017-11-06T04:57:18.839Z,99343
2017-11-06T04:59:25.057Z,99336
2017-11-06T05:01:30.787Z,99345
2017-11-06T05:03:37.385Z,99339
2017-11-06T05:05:43.488Z,99343
2017-11-06T05:07:49.272Z,99348
2017-11-06T05:09:57.025Z,99350
2017-11-06T05:12:07.788Z,99357
2017-11-06T05:14:13.275Z,99354
2017-11-06T05:16:19.924Z,99354
2017-11-06T05:18:27.441Z,99353
2017-11-06T05:20:36.141Z,99362
2017-11-06T05:22:42.579Z,99354
2017-11-06T05:24:48.494Z,99360
2017-11-06T05:26:54.179Z,99360
2017-11-06T05:29:03.030Z,99361
2017-11-06T05:31:12.156Z,99361
2017-11-06T05:33:26.469Z,99360
2017-11-06T05:35:33.996Z,99355
2017-11-06T05:37:51.005Z,99364
2017-11-06T05:40:09.197Z,99366
2017-11-06T05:42:23.026Z,99380
2017-11-06T05:44:39.245Z,99385
2017-11-06T05:46:54.640Z,99386
2017-11-06T05:49:07.116Z,99391
2017-11-06T05:51:16.346Z,99400
2017-11-06T05:53:25.274Z,99407
2017-11-06T05:55:36.478Z,99413
2017-11-06T05:57:43.186Z,99415
2017-11-06T06:02:05.700Z,99415
2017-11-06T06:04:13.378Z,99423
2017-11-06T06:06:28.540Z,99432
2017-11-06T06:08:35.006Z,99425
2017-11-06T06:10:42.785Z,99437
2017-11-06T06:12:50.131Z,99440
2017-11-06T06:14:57.888Z,99437
2017-11-06T06:17:11.002Z,99447
2017-11-06T06:19:18.954Z,99451
2017-11-06T06:21:26.161Z,99457
2017-11-06T06:23:37.048Z,99456
2017-11-06T06:25:43.751Z,99459
2017-11-06T06:27:52.351Z,99458
2017-11-06T06:29:59.838Z,99463
2017-11-06T06:32:07.845Z,99463
2017-11-06T06:34:15.157Z,99471
2017-11-06T06:36:21.182Z,99472
2017-11-06T06:38:28.815Z,99472
2017-11-06T06:40:37.120Z,99472
2017-11-06T06:42:47.120Z,99474
2017-11-06T06:44:55.829Z,99480
2017-11-06T06:47:10.367Z,99481
2017-11-06T06:49:16.266Z,99486
2017-11-06T06:51:25.197Z,99484
2017-11-06T06:53:36.467Z,99484
2017-11-06T06:55:42.698Z,99488
2017-11-06T06:57:54.065Z,99490
2017-11-06T07:00:09.264Z,99489
2017-11-06T07:02:15.099Z,99493
2017-11-06T07:04:22.263Z,99491
2017-11-06T07:06:30.458Z,99496
2017-11-06T07:08:37.647Z,99500
2017-11-06T07:10:46.511Z,99502
2017-11-06T07:12:55.012Z,99508
2017-11-06T07:15:14.668Z,99508
2017-11-06T07:17:24.837Z,99514
2017-11-06T07:19:30.553Z,99518
2017-11-06T07:21:40.174Z,99521
2017-11-06T07:23:47.202Z,99528
2017-11-06T07:25:58.170Z,99531
2017-11-06T07:28:10.090Z,99525
2017-11-06T07:30:18.387Z,99524
2017-11-06T07:32:29.648Z,99528
2017-11-06T07:34:50.264Z,99534
2017-11-06T07:36:58.227Z,99539
2017-11-06T07:39:07.735Z,99535
2017-11-06T07:41:14.500Z,99545
2017-11-06T07:43:21.264Z,99556
2017-11-06T07:45:26.957Z,99561
2017-11-06T07:47:32.670Z,99558
2017-11-06T07:49:39.208Z,99560
2017-11-06T07:51:44.875Z,99564
2017-11-06T07:53:52.155Z,99567
2017-11-06T07:56:04.582Z,99569
2017-11-06T07:58:11.415Z,99574
2017-11-06T08:00:16.947Z,99570
2017-11-06T08:02:22.839Z,99575
2017-11-06T08:04:28.686Z,99581
2017-11-06T08:06:34.634Z,99587
2017-11-06T08:08:40.287Z,99587
2017-11-06T08:10:46.276Z,99586
2017-11-06T08:12:52.485Z,99590
2017-11-06T08:14:58.968Z,99599
2017-11-06T08:17:07.340Z,99598
2017-11-06T08:19:14.179Z,99599
2017-11-06T08:21:20.829Z,99603
2017-11-06T08:23:27.668Z,99602
2017-11-06T08:25:35.400Z,99609
2017-11-06T08:27:42.706Z,99618
2017-11-06T08:29:50.477Z,99613
2017-11-06T08:31:57.503Z,99624
2017-11-06T08:34:06.790Z,99628
2017-11-06T08:38:29.606Z,99614
2017-11-06T08:40:35.342Z,99619
2017-11-06T08:42:41.343Z,99621
2017-11-06T08:44:47.346Z,99627
2017-11-06T08:46:55.954Z,99629
2017-11-06T08:49:03.631Z,99631
2017-11-06T08:51:09.890Z,99633
2017-11-06T08:53:16.832Z,99642
2017-11-06T08:55:23.304Z,99643
2017-11-06T08:57:29.029Z,99641
2017-11-06T08:59:36.359Z,99649
2017-11-06T09:01:42.501Z,99650
2017-11-06T09:03:50.156Z,99653
2017-11-06T09:05:57.032Z,99653
2017-11-06T09:08:09.119Z,99658
2017-11-06T09:10:17.633Z,99655
2017-11-06T09:12:30.762Z,99663
2017-11-06T09:14:37.331Z,99666
2017-11-06T09:16:45.852Z,99672
2017-11-06T09:18:55.414Z,99666
2017-11-06T09:21:06.429Z,99671
2017-11-06T09:23:12.648Z,99667
2017-11-06T09:25:18.563Z,99678
2017-11-06T09:27:24.561Z,99674
2017-11-06T09:29:31.323Z,99678
2017-11-06T09:31:38.611Z,99676
2017-11-06T09:33:44.518Z,99683
2017-11-06T09:35:52.453Z,99684
2017-11-06T09:37:58.932Z,99683
2017-11-06T09:40:10.149Z,99685
2017-11-06T09:42:15.993Z,99683
2017-11-06T09:44:22.043Z,99683
2017-11-06T09:46:29.790Z,99673
2017-11-06T09:48:37.808Z,99680
2017-11-06T09:50:44.302Z,99680
2017-11-06T09:52:50.501Z,99686
2017-11-06T09:54:56.796Z,99688
2017-11-06T09:57:07.680Z,99689
2017-11-06T09:59:15.683Z,99685
2017-11-06T10:01:22.594Z,99693
2017-11-06T10:03:29.971Z,99693
2017-11-06T10:05:36.021Z,99694
2017-11-06T10:07:42.206Z,99697
2017-11-06T10:09:52.696Z,99696
2017-11-06T10:12:00.018Z,99698
2017-11-06T10:14:11.618Z,99706
2017-11-06T10:16:17.869Z,99709
2017-11-06T10:18:24.163Z,99701
2017-11-06T10:20:30.139Z,99706
2017-11-06T10:22:35.933Z,99712
2017-11-06T10:24:41.500Z,99713
2017-11-06T10:26:47.828Z,99722
2017-11-06T10:28:55.204Z,99718
2017-11-06T10:31:03.563Z,99713
2017-11-06T10:33:10.399Z,99709
2017-11-06T10:35:16.909Z,99711
2017-11-06T10:37:23.242Z,99707
2017-11-06T10:39:29.833Z,99703
2017-11-06T10:41:35.926Z,99702
2017-11-06T10:43:41.987Z,99702
2017-11-06T10:45:51.258Z,99701
2017-11-06T10:47:58.006Z,99702
2017-11-06T10:50:04.859Z,99705
2017-11-06T10:52:10.939Z,99708
2017-11-06T10:54:20.688Z,99711
2017-11-06T10:56:29.184Z,99711
2017-11-06T10:58:37.212Z,99716
2017-11-06T11:00:43.315Z,99716
2017-11-06T11:02:50.496Z,99720
2017-11-06T11:04:59.171Z,99716
2017-11-06T11:07:10.082Z,99714
2017-11-06T11:09:16.921Z,99718
2017-11-06T11:11:23.335Z,99721
2017-11-06T11:13:32.259Z,99720
2017-11-06T11:15:38.274Z,99711
2017-11-06T11:17:44.069Z,99718
2017-11-06T11:19:50.701Z,99724
2017-11-06T11:21:57.253Z,99720
2017-11-06T11:24:07.118Z,99723
2017-11-06T11:26:12.896Z,99726
2017-11-06T11:28:18.979Z,99730
2017-11-06T11:30:25.139Z,99721
2017-11-06T11:32:31.771Z,99728
2017-11-06T11:34:38.660Z,99731
2017-11-06T11:36:44.821Z,99731
2017-11-06T11:38:51.616Z,99731
2017-11-06T11:41:01.909Z,99744
2017-11-06T11:43:09.814Z,99744
2017-11-06T11:45:17.990Z,99744
2017-11-06T11:47:23.670Z,99748
2017-11-06T11:49:30.344Z,99745
2017-11-06T11:51:36.022Z,99746
2017-11-06T11:53:42.111Z,99751
2017-11-06T11:55:48.455Z,99751
2017-11-06T11:57:56.787Z,99745
2017-11-06T12:00:06.526Z,99750
2017-11-06T12:02:12.385Z,99747
2017-11-06T12:04:18.399Z,99747
2017-11-06T12:06:24.119Z,99743
2017-11-06T12:08:30.720Z,99744
2017-11-06T12:10:36.325Z,99746
2017-11-06T12:12:42.347Z,99747
2017-11-06T12:14:49.705Z,99750
2017-11-06T12:16:58.728Z,99748
2017-11-06T12:19:11.817Z,99753
2017-11-06T12:21:19.169Z,99753
2017-11-06T12:23:25.410Z,99762
2017-11-06T12:25:32.911Z,99763
2017-11-06T12:27:41.884Z,99761
2017-11-06T12:29:48.790Z,99764
2017-11-06T12:32:00.085Z,99765
2017-11-06T12:34:05.777Z,99767
2017-11-06T12:38:36.428Z,99766
2017-11-06T12:41:10.219Z,99765
2017-11-06T12:43:35.913Z,99763
2017-11-06T12:45:56.236Z,99770
2017-11-06T12:48:07.126Z,99767
2017-11-06T12:50:14.174Z,99766
2017-11-06T12:52:20.513Z,99758
2017-11-06T12:54:27.632Z,99763
2017-11-06T12:56:38.372Z,99765
2017-11-06T12:58:44.405Z,99764
2017-11-06T13:00:54.457Z,99765
2017-11-06T13:03:11.040Z,99762
2017-11-06T13:05:16.598Z,99765
2017-11-06T13:07:22.494Z,99756
2017-11-06T13:09:29.228Z,99761
2017-11-06T13:11:35.586Z,99759
2017-11-06T13:13:41.988Z,99762
2017-11-06T13:15:48.400Z,99761
2017-11-06T13:17:55.920Z,99760
2017-11-06T13:20:03.314Z,99763
2017-11-06T13:22:35.708Z,99760
2017-11-06T13:26:42.956Z,99754
2017-11-06T13:46:49.915Z,99773
2017-11-06T13:49:11.848Z,99777
2017-11-06T13:51:22.667Z,99780
2017-11-06T13:53:30.801Z,99786
2017-11-06T13:55:37.760Z,99783
2017-11-06T13:57:44.806Z,99786
2017-11-06T13:59:55.323Z,99796
2017-11-06T14:02:06.436Z,99797
2017-11-06T14:04:14.085Z,99802
2017-11-06T14:06:36.389Z,99798
2017-11-06T14:15:10.387Z,99793
2017-11-06T14:17:16.965Z,99813
2017-11-06T14:19:23.505Z,99815
2017-11-06T14:21:30.591Z,99822
2017-11-06T14:23:37.198Z,99822
2017-11-06T14:25:43.272Z,99824
2017-11-06T14:27:49.471Z,99822
2017-11-06T14:29:56.028Z,99820
2017-11-06T14:32:07.914Z,99824
2017-11-06T14:39:46.157Z,99822
2017-11-06T14:41:53.111Z,99827
2017-11-06T14:43:59.726Z,99831
2017-11-06T14:46:10.272Z,99830
2017-11-06T14:48:19.562Z,99832
2017-11-06T14:50:30.386Z,99832
2017-11-06T14:52:40.984Z,99830
2017-11-06T14:54:49.317Z,99828
2017-11-06T14:56:57.131Z,99831
2017-11-06T14:59:14.961Z,99837
2017-11-06T15:01:26.491Z,99836
2017-11-06T15:03:38.356Z,99840
2017-11-06T15:05:47.114Z,99838
2017-11-06T15:07:56.936Z,99847
2017-11-06T15:10:15.710Z,99844
2017-11-06T15:12:25.278Z,99845
2017-11-06T15:14:33.609Z,99857
2017-11-06T15:16:40.506Z,99856
2017-11-06T15:18:47.205Z,99858
2017-11-06T15:20:54.065Z,99859
2017-11-06T15:23:08.606Z,99862
2017-11-06T15:25:15.924Z,99870
2017-11-06T15:27:21.512Z,99869
2017-11-06T15:29:29.306Z,99873
2017-11-06T15:31:35.042Z,99882
2017-11-06T15:33:41.637Z,99881
2017-11-06T15:35:49.263Z,99882
2017-11-06T15:37:58.389Z,99888
2017-11-06T15:40:08.309Z,99888
2017-11-06T15:42:14.984Z,99889
2017-11-06T15:44:21.909Z,99890
2017-11-06T15:46:28.948Z,99891
2017-11-06T15:48:35.810Z,99896
2017-11-06T15:50:42.441Z,99899
2017-11-06T15:52:52.646Z,99897
2017-11-06T15:54:59.598Z,99893
2017-11-06T15:57:09.349Z,99893
2017-11-06T15:59:18.159Z,99892
2017-11-06T16:01:25.754Z,99898
2017-11-06T16:03:31.937Z,99901
2017-11-06T16:05:41.549Z,99899
2017-11-06T16:07:48.192Z,99905
2017-11-06T16:09:56.867Z,99902
2017-11-06T16:12:03.530Z,99906
2017-11-06T16:14:12.032Z,99910
2017-11-06T16:16:22.710Z,99912
2017-11-06T16:18:29.301Z,99911
2017-11-06T16:20:45.741Z,99921
2017-11-06T16:22:56.347Z,99919
2017-11-06T16:25:04.181Z,99920
2017-11-06T16:27:24.720Z,99924
2017-11-06T16:29:31.039Z,99929
2017-11-06T16:31:37.746Z,99932
2017-11-06T16:33:43.611Z,99937
2017-11-06T16:35:49.455Z,99935
2017-11-06T16:37:58.665Z,99940
2017-11-06T16:40:11.532Z,99948
2017-11-06T16:42:19.341Z,99951
2017-11-06T16:44:29.758Z,99953
2017-11-06T16:46:35.716Z,99949
2017-11-06T16:48:42.710Z,99955
2017-11-06T16:50:50.603Z,99958
2017-11-06T16:53:00.778Z,99958
2017-11-06T16:55:11.788Z,99965
2017-11-06T16:57:18.182Z,99960
2017-11-06T16:59:24.685Z,99967
2017-11-06T17:01:31.032Z,99960
2017-11-06T17:03:41.861Z,99958
2017-11-06T17:05:48.813Z,99961
2017-11-06T17:07:56.189Z,99967
2017-11-06T17:10:04.225Z,99966
2017-11-06T17:12:11.320Z,99977
2017-11-06T17:14:17.821Z,99982
2017-11-06T17:16:26.408Z,99984
2017-11-06T17:18:34.268Z,99987
2017-11-06T17:20:43.285Z,99987
2017-11-06T17:22:49.768Z,99983
2017-11-06T17:24:57.519Z,99991
2017-11-06T17:27:09.076Z,99994
2017-11-06T17:29:19.757Z,99991
2017-11-06T17:31:25.899Z,99991
2017-11-06T17:33:35.553Z,100004
2017-11-06T17:35:42.364Z,100005
2017-11-06T17:37:51.104Z,100005
2017-11-06T17:39:57.555Z,99995
2017-11-06T17:42:09.369Z,100005
2017-11-06T17:44:17.754Z,100010
2017-11-06T17:46:25.575Z,100003
2017-11-06T17:48:32.107Z,99999
2017-11-06T17:50:40.007Z,99997
2017-11-06T17:52:48.940Z,99999
2017-11-06T17:54:56.355Z,99997
2017-11-06T17:57:05.404Z,100001
2017-11-06T17:59:15.418Z,100000
2017-11-06T18:01:21.564Z,100000
2017-11-06T18:03:29.410Z,100012
2017-11-06T18:05:35.869Z,100009
2017-11-06T18:07:44.385Z,100009
2017-11-06T18:09:51.561Z,100014
2017-11-06T18:11:57.979Z,100013
2017-11-06T18:14:04.114Z,100018
2017-11-06T18:16:11.374Z,100022
2017-11-06T18:18:20.386Z,100020
2017-11-06T18:20:30.319Z,100026
2017-11-06T18:22:36.531Z,100028
2017-11-06T18:24:43.768Z,100032
2017-11-06T18:27:09.725Z,100036
2017-11-06T18:29:20.963Z,100030
2017-11-06T18:31:27.096Z,100033
2017-11-06T18:33:35.321Z,100032
2017-11-06T18:35:41.497Z,100034
2017-11-06T18:37:54.062Z,100041
2017-11-06T18:40:06.565Z,100038
2017-11-06T18:42:15.812Z,100040
2017-11-06T18:44:23.521Z,100043
2017-11-06T18:46:30.818Z,100042
2017-11-06T18:48:39.113Z,100036
2017-11-06T18:50:47.431Z,100049
2017-11-06T18:52:58.163Z,100043
2017-11-06T18:55:12.245Z,100051
2017-11-06T18:57:24.334Z,100053
2017-11-06T18:59:32.934Z,100052
2017-11-06T19:01:42.982Z,100058
2017-11-06T19:03:52.252Z,100062
2017-11-06T19:08:21.213Z,100063
2017-11-06T19:10:27.822Z,100063
2017-11-06T19:12:36.747Z,100061
2017-11-06T19:14:43.597Z,100061
2017-11-06T19:16:49.950Z,100061
2017-11-06T19:18:59.451Z,100062
2017-11-06T19:23:23.439Z,100057
2017-11-06T19:25:31.150Z,100059
2017-11-06T19:27:40.254Z,100057
2017-11-06T19:29:48.735Z,100064
2017-11-06T19:31:59.013Z,100067
2017-11-06T19:34:09.781Z,100070
2017-11-06T19:36:18.941Z,100069
2017-11-06T19:38:25.106Z,100069
2017-11-06T19:40:32.730Z,100068
2017-11-06T19:45:08.082Z,100073
2017-11-06T19:47:15.065Z,100077
2017-11-06T19:49:23.402Z,100074
2017-11-06T19:51:31.629Z,100066
2017-11-06T19:53:41.488Z,100062
2017-11-06T19:55:50.221Z,100058
2017-11-06T19:58:00.798Z,100056
2017-11-06T20:00:17.940Z,100054
2017-11-06T20:02:25.550Z,100063
2017-11-06T20:04:34.280Z,100070
2017-11-06T20:06:41.676Z,100056
2017-11-06T20:08:50.054Z,100053
2017-11-06T20:11:00.340Z,100060
2017-11-06T20:13:11.953Z,100060
2017-11-06T20:15:19.288Z,100059
2017-11-06T20:17:26.377Z,100056
2017-11-06T20:19:36.814Z,100057
2017-11-06T20:21:54.462Z,100062
2017-11-06T20:24:03.903Z,100060
2017-11-06T20:26:14.371Z,100066
2017-11-06T20:28:24.159Z,100076
2017-11-06T20:30:38.727Z,100067
2017-11-06T20:32:48.783Z,100070
2017-11-06T20:35:11.486Z,100071
2017-11-06T20:40:20.295Z,100074
2017-11-06T20:44:59.547Z,100075
2017-11-06T20:47:24.485Z,100074
2017-11-06T20:49:43.170Z,100083
2017-11-06T20:51:54.261Z,100079
2017-11-06T20:54:01.279Z,100079
2017-11-06T20:56:19.285Z,100078
2017-11-06T20:58:27.913Z,100086
2017-11-06T21:00:36.191Z,100090
2017-11-06T21:02:43.998Z,100091
2017-11-06T21:04:53.272Z,100086
2017-11-06T21:07:02.110Z,100085
2017-11-06T21:09:11.127Z,100093
2017-11-06T21:11:19.815Z,100094
2017-11-06T21:13:26.047Z,100092
2017-11-06T21:15:33.720Z,100091
2017-11-06T21:17:43.136Z,100096
2017-11-06T21:19:51.007Z,100100
2017-11-06T21:21:58.855Z,100103
2017-11-06T21:24:11.166Z,100101
2017-11-06T21:26:18.194Z,100101
2017-11-06T21:28:26.967Z,100104
2017-11-06T21:30:37.971Z,100105
2017-11-06T21:32:45.088Z,100104
2017-11-06T21:34:52.648Z,100106
2017-11-06T21:37:00.020Z,100112
2017-11-06T21:39:08.922Z,100116
2017-11-06T21:41:23.918Z,100114
2017-11-06T21:43:31.574Z,100113
2017-11-06T21:45:42.131Z,100111
2017-11-06T21:47:49.424Z,100114
2017-11-06T21:50:15.084Z,100118
2017-11-06T21:52:23.462Z,100123
2017-11-06T21:54:30.587Z,100121
2017-11-06T21:56:36.619Z,100118
2017-11-06T21:58:48.085Z,100117
2017-11-06T22:00:58.654Z,100127
2017-11-06T22:03:05.355Z,100119
2017-11-06T22:05:11.959Z,100122
2017-11-06T22:07:21.248Z,100118
2017-11-06T22:09:28.257Z,100121
2017-11-06T22:11:35.457Z,100118
2017-11-06T22:13:42.561Z,100116
2017-11-06T22:15:49.730Z,100114
2017-11-06T22:17:57.825Z,100117
2017-11-06T22:20:17.236Z,100113
2017-11-06T22:22:25.896Z,100105
2017-11-06T22:24:32.104Z,100102
2017-11-06T22:26:38.387Z,100103
2017-11-06T22:28:44.904Z,100107
2017-11-06T22:30:53.441Z,100106
2017-11-06T22:33:02.411Z,100106
2017-11-06T22:35:12.304Z,100105
2017-11-06T22:37:19.336Z,100106
2017-11-06T22:39:27.920Z,100107
2017-11-06T22:41:34.988Z,100109
2017-11-06T22:43:46.667Z,100114
2017-11-06T22:45:55.051Z,100108
2017-11-06T22:48:06.216Z,100114
2017-11-06T22:50:35.999Z,100113
2017-11-06T22:53:50.738Z,100109
2017-11-06T22:56:07.773Z,100109
2017-11-06T22:58:23.224Z,100107
2017-11-06T23:00:33.357Z,100108
2017-11-06T23:02:53.619Z,100110
2017-11-06T23:05:27.960Z,100101
2017-11-06T23:07:49.928Z,100104
2017-11-06T23:10:08.708Z,100102
2017-11-06T23:12:21.680Z,100110
2017-11-06T23:14:38.254Z,100106
2017-11-06T23:16:48.319Z,100106
2017-11-06T23:18:56.913Z,100104
2017-11-06T23:21:08.939Z,100099
2017-11-06T23:23:17.809Z,100104
2017-11-06T23:25:26.726Z,100105
2017-11-06T23:27:35.135Z,100109
2017-11-06T23:29:46.200Z,100100
2017-11-06T23:31:57.390Z,100098
2017-11-06T23:34:09.211Z,100094
2017-11-06T23:36:20.626Z,100094
2017-11-06T23:38:43.496Z,100102
2017-11-06T23:40:53.427Z,100096
2017-11-06T23:43:03.389Z,100097
2017-11-06T23:45:14.202Z,100097
2017-11-06T23:47:25.476Z,100093
2017-11-06T23:49:34.269Z,100088
2017-11-06T23:51:43.953Z,100094
2017-11-06T23:53:54.039Z,100090
2017-11-06T23:56:07.866Z,100094
2017-11-06T23:58:17.489Z,100094
